Hauptseite
METAR-TAF:

METAR-TAF

Flughäfen :

Flughafen Kuwait

Kuwait-Stadt, Kuwait

Breite: 29-13N, Länge: 047-59E, Höhe: 55 m

Beobachtung

Neuester Wetterbericht von vor 20 Minuten, um 03:00 UTC
Wind 3 kt aus Süd/Südwest
Temperatur 8°C
Luftfeuchtigkeit 87%
Luftdruck 1021 hPa
Sichtweite 10 km oder mehr
keine Wolken unter 1500 m und keine Kumulonimbus oder Gewitterwolken

METAR: OKBK 200300Z 20003KT CAVOK 08/06 Q1021 NOSIG

Zeit: 06:20 (03:20 UTC)

Prognose

Neuester Wetterbericht von vor 4 Stunden und 35 Minuten, um 22:45 UTC
Gültige Prognose vom 20 um 00 UTC bis 21 um 06 UTC
Wind 3 kt aus unterschiedlichen Richtungen
Sichtweite: 7000 m
Übergehend zu
vom 20 um 07 UTC bis 20 um 09 UTC
Wind 12 kt aus Nordwest

TAF: OKBK 192245Z 2000/2106 VRB03KT 7000 NSC BECMG 2007/2009 32012KT

Wetterbeobachtungen und Prognosen von mehr als 4000 Flughäfen (METAR und TAF Bericht).

Die verfügbaren Stationen werden durch gelbe und rote Markierungen auf der Karte dargestellt.

Führen Sie die Maus auf sie, um den Namen der Station zu sehen.

Darauf klicken, um die Beobachtung von Wetterbeobachtungen und Prognosen zu sehen.

Um die Karte zu ändern : klicken Sie auf den grünen Tasten mit einem schwarzen Kreuz Zum Vergrößern, auf den grünen Button mit einem Gedankenstrich zu verkleinern, oder auf die grünen Pfeile für benachbarte Karten.


METAR-TAF: